Map

Track Data

SID SEASON NUMBER BASIN SUBBASIN NAME ISO_TIME NATURE LAT LON WMO_WIND WMO_PRES WMO_AGENCY TRACK_TYPE DIST2LAND LANDFALL IFLAG USA_AGENCY USA_ATCF_ID USA_LAT USA_LON USA_RECORD USA_STATUS USA_WIND USA_PRES USA_SSHS USA_R34_NE USA_R34_SE USA_R34_SW USA_R34_NW USA_R50_NE USA_R50_SE USA_R50_SW USA_R50_NW USA_R64_NE USA_R64_SE USA_R64_SW USA_R64_NW USA_POCI USA_ROCI USA_RMW USA_EYE TOKYO_LAT TOKYO_LON TOKYO_GRADE TOKYO_WIND TOKYO_PRES TOKYO_R50_DIR TOKYO_R50_LONG TOKYO_R50_SHORT TOKYO_R30_DIR TOKYO_R30_LONG TOKYO_R30_SHORT TOKYO_LAND CMA_LAT CMA_LON CMA_CAT CMA_WIND CMA_PRES HKO_LAT HKO_LON HKO_CAT HKO_WIND HKO_PRES NEWDELHI_LAT NEWDELHI_LON NEWDELHI_GRADE NEWDELHI_WIND NEWDELHI_PRES NEWDELHI_CI NEWDELHI_DP NEWDELHI_POCI REUNION_LAT REUNION_LON REUNION_TYPE REUNION_WIND REUNION_PRES REUNION_TNUM REUNION_CI REUNION_RMW REUNION_R34_NE REUNION_R34_SE REUNION_R34_SW REUNION_R34_NW REUNION_R50_NE REUNION_R50_SE REUNION_R50_SW REUNION_R50_NW REUNION_R64_NE REUNION_R64_SE REUNION_R64_SW REUNION_R64_NW BOM_LAT BOM_LON BOM_TYPE BOM_WIND BOM_PRES BOM_TNUM BOM_CI BOM_RMW BOM_R34_NE BOM_R34_SE BOM_R34_SW BOM_R34_NW BOM_R50_NE BOM_R50_SE BOM_R50_SW BOM_R50_NW BOM_R64_NE BOM_R64_SE BOM_R64_SW BOM_R64_NW BOM_ROCI BOM_POCI BOM_EYE BOM_POS_METHOD BOM_PRES_METHOD NADI_LAT NADI_LON NADI_CAT NADI_WIND NADI_PRES WELLINGTON_LAT WELLINGTON_LON WELLINGTON_WIND WELLINGTON_PRES DS824_LAT DS824_LON DS824_STAGE DS824_WIND DS824_PRES TD9636_LAT TD9636_LON TD9636_STAGE TD9636_WIND TD9636_PRES TD9635_LAT TD9635_LON TD9635_WIND TD9635_PRES TD9635_ROCI NEUMANN_LAT NEUMANN_LON NEUMANN_CLASS NEUMANN_WIND NEUMANN_PRES MLC_LAT MLC_LON MLC_CLASS MLC_WIND MLC_PRES USA_GUST BOM_GUST BOM_GUST_PER REUNION_GUST REUNION_GUST_PER USA_SEAHGT USA_SEARAD_NE USA_SEARAD_SE USA_SEARAD_SW USA_SEARAD_NW STORM_SPEED STORM_DIR
1933111S10441 1933 11 SI MM NOT_NAMED 1933-04-20 18:00:00 NR -10.3000 80.6000 main 1815 1815 __________O___ -1 -10.3000 80.6000 7 10 247
1933111S10441 1933 11 SI MM NOT_NAMED 1933-04-20 21:00:00 NR -10.4882 80.1412 main 1838 1838 __________P___ -1 -10.4882 80.1412 7 10 247
1933111S10441 1933 11 SI MM NOT_NAMED 1933-04-21 00:00:00 NR -10.6708 79.6956 main 1862 1862 __________P___ -1 -10.6708 79.6956 7 9 247
1933111S10441 1933 11 SI MM NOT_NAMED 1933-04-21 03:00:00 NR -10.8430 79.2772 main 1876 1876 __________P___ -1 -10.8430 79.2772 7 8 247
1933111S10441 1933 11 SI MM NOT_NAMED 1933-04-21 06:00:00 NR -11.0000 78.9000 main 1902 1902 __________O___ -1 -11.0000 78.9000 7 8 247
1933111S10441 1933 11 SI MM NOT_NAMED 1933-04-21 09:00:00 NR -11.1390 78.5719 main 1917 1917 __________P___ -1 -11.1390 78.5719 7 7 247
1933111S10441 1933 11 SI MM NOT_NAMED 1933-04-21 12:00:00 NR -11.2645 78.2772 main 1943 1943 __________P___ -1 -11.2645 78.2772 7 6 247
1933111S10441 1933 11 SI MM NOT_NAMED 1933-04-21 15:00:00 NR -11.3828 77.9938 main 1959 1959 __________P___ -1 -11.3828 77.9938 7 6 247
1933111S10441 1933 11 SI MM NOT_NAMED 1933-04-21 18:00:00 NR -11.5000 77.7000 main 1975 1975 __________O___ -1 -11.5000 77.7000 7 7 249
1933111S10441 1933 11 SI MM NOT_NAMED 1933-04-21 21:00:00 NR -11.6251 77.3522 main 1992 1992 __________P___ -1 -11.6251 77.3522 7 7 250
1933111S10441 1933 11 SI MM NOT_NAMED 1933-04-22 00:00:00 NR -11.7501 76.9925 main 2022 2022 __________P___ -1 -11.7501 76.9925 7 7 250
1933111S10441 1933 11 SI MM NOT_NAMED 1933-04-22 03:00:00 NR -11.8751 76.6365 main 2042 2042 __________P___ -1 -11.8751 76.6365 7 7 250
1933111S10441 1933 11 SI MM NOT_NAMED 1933-04-22 06:00:00 NR -12.0000 76.3000 main 2061 2061 __________O___ -1 -12.0000 76.3000 7 7 248
1933111S10441 1933 11 SI MM NOT_NAMED 1933-04-22 09:00:00 NR -12.1248 75.9993 main 2080 2080 __________P___ -1 -12.1248 75.9993 7 6 246
1933111S10441 1933 11 SI MM NOT_NAMED 1933-04-22 12:00:00 NR -12.2498 75.7199 main 2099 2083 __________P___ -1 -12.2498 75.7199 7 6 245
1933111S10441 1933 11 SI MM NOT_NAMED 1933-04-22 15:00:00 NR -12.3749 75.4555 main 2083 2049 __________P___ -1 -12.3749 75.4555 7 6 244
1933111S10441 1933 11 SI MM NOT_NAMED 1933-04-22 18:00:00 NR -12.5000 75.2000 main 2049 2024 __________O___ -1 -12.5000 75.2000 7 6 243
1933111S10441 1933 11 SI MM NOT_NAMED 1933-04-22 21:00:00 NR -12.6248 74.9508 main 2024 1990 __________P___ -1 -12.6248 74.9508 7 5 243
1933111S10441 1933 11 SI MM NOT_NAMED 1933-04-23 00:00:00 NR -12.7498 74.7073 main 1990 1961 __________P___ -1 -12.7498 74.7073 7 5 242
1933111S10441 1933 11 SI MM NOT_NAMED 1933-04-23 03:00:00 NR -12.8748 74.4602 main 1961 1927 __________P___ -1 -12.8748 74.4602 7 6 243
1933111S10441 1933 11 SI MM NOT_NAMED 1933-04-23 06:00:00 NR -13.0000 74.2000 main 1927 1893 __________O___ -1 -13.0000 74.2000 7 6 245
1933111S10441 1933 11 SI MM NOT_NAMED 1933-04-23 09:00:00 NR -13.1251 73.9022 main 1893 1859 __________P___ -1 -13.1251 73.9022 7 6 247
1933111S10441 1933 11 SI MM NOT_NAMED 1933-04-23 12:00:00 NR -13.2501 73.5925 main 1854 1820 __________P___ -1 -13.2501 73.5925 7 7 247
1933111S10441 1933 11 SI MM NOT_NAMED 1933-04-23 15:00:00 NR -13.3751 73.2866 main 1820 1786 __________P___ -1 -13.3751 73.2866 7 6 247
1933111S10441 1933 11 SI MM NOT_NAMED 1933-04-23 18:00:00 NR -13.5000 73.0000 main 1786 1761 __________O___ -1 -13.5000 73.0000 7 6 245
1933111S10441 1933 11 SI MM NOT_NAMED 1933-04-23 21:00:00 NR -13.6250 72.7444 main 1752 1727 __________P___ -1 -13.6250 72.7444 7 5 242
1933111S10441 1933 11 SI MM NOT_NAMED 1933-04-24 00:00:00 NR -13.7500 72.5151 main 1727 1698 __________P___ -1 -13.7500 72.5151 7 5 240
1933111S10441 1933 11 SI MM NOT_NAMED 1933-04-24 03:00:00 NR -13.8750 72.3032 main 1698 1674 __________P___ -1 -13.8750 72.3032 7 5 238
1933111S10441 1933 11 SI MM NOT_NAMED 1933-04-24 06:00:00 NR -14.0000 72.1000 main 1674 __________O___ -1 -14.0000 72.1000 7 5 238

About IBTrACS Database

This database is a web-friendly format of International Best Track Archive for Climate Stewardship (IBTrACS), a global best track data archive curated by NOAA dating back to 1842.

Updated: 2021-12-03